createdAt,value
2018-12-13T00:00:29.026Z,90.20
2018-12-13T00:02:59.758Z,90.40
2018-12-13T00:05:30.478Z,90.40
2018-12-13T00:07:59.353Z,90.40
2018-12-13T00:10:28.211Z,90.50
2018-12-13T00:12:58.945Z,90.60
2018-12-13T00:15:31.402Z,90.60
2018-12-13T00:18:00.391Z,90.50
2018-12-13T00:20:29.374Z,90.70
2018-12-13T00:22:58.301Z,90.80
2018-12-13T00:25:27.145Z,90.70
2018-12-13T00:27:55.961Z,90.90
2018-12-13T00:30:24.865Z,90.90
2018-12-13T00:32:53.695Z,90.90
2018-12-13T00:35:22.537Z,91.00
2018-12-13T00:37:51.330Z,91.40
2018-12-13T00:40:20.123Z,91.10
2018-12-13T00:42:48.923Z,91.10
2018-12-13T00:45:17.710Z,91.00
2018-12-13T00:47:46.528Z,91.10
2018-12-13T00:50:15.323Z,91.10
2018-12-13T00:52:44.125Z,91.10
2018-12-13T00:55:12.939Z,91.10
2018-12-13T00:57:41.738Z,91.10
2018-12-13T01:00:10.809Z,91.20
2018-12-13T01:02:39.688Z,91.20
2018-12-13T01:05:08.567Z,91.20
2018-12-13T01:07:37.370Z,91.30
2018-12-13T01:10:06.401Z,91.50
2018-12-13T01:12:35.222Z,91.50
2018-12-13T01:15:04.199Z,91.60
2018-12-13T01:17:33.038Z,91.70
2018-12-13T01:20:01.991Z,91.60
2018-12-13T01:22:31.858Z,91.70
2018-12-13T01:25:00.693Z,91.50
2018-12-13T01:27:29.581Z,91.40
2018-12-13T01:29:58.506Z,91.40
2018-12-13T01:32:27.302Z,91.50
2018-12-13T01:34:56.098Z,91.50
2018-12-13T01:37:24.917Z,91.30
2018-12-13T01:39:53.741Z,91.40
2018-12-13T01:42:22.636Z,91.30
2018-12-13T01:44:51.416Z,91.30
2018-12-13T01:47:20.215Z,91.30
2018-12-13T01:49:49.009Z,91.30
2018-12-13T01:52:17.807Z,91.50
2018-12-13T01:54:46.589Z,91.60
2018-12-13T01:57:15.375Z,91.70
2018-12-13T01:59:44.150Z,91.80
2018-12-13T02:02:12.942Z,91.90
2018-12-13T02:04:41.718Z,92.00
2018-12-13T02:07:10.571Z,92.10
2018-12-13T02:09:39.357Z,92.20
2018-12-13T02:12:09.242Z,92.30
2018-12-13T02:14:38.033Z,92.30
2018-12-13T02:17:06.485Z,92.40
2018-12-13T02:19:35.258Z,92.50
2018-12-13T02:22:04.250Z,92.60
2018-12-13T02:24:33.023Z,92.50
2018-12-13T02:27:01.844Z,92.60
2018-12-13T02:29:30.795Z,92.60
2018-12-13T02:31:59.673Z,92.70
2018-12-13T02:34:28.470Z,92.60
2018-12-13T02:36:57.265Z,92.60
2018-12-13T02:39:26.313Z,92.60
2018-12-13T02:41:55.114Z,92.60
2018-12-13T02:44:23.886Z,92.50
2018-12-13T02:46:52.662Z,92.50
2018-12-13T02:49:21.466Z,92.60
2018-12-13T02:51:50.249Z,92.60
2018-12-13T02:54:19.052Z,92.70
2018-12-13T02:56:48.897Z,92.80
2018-12-13T02:59:17.667Z,92.70
2018-12-13T03:01:46.722Z,92.70
2018-12-13T03:04:15.529Z,92.70
2018-12-13T03:06:44.379Z,92.70
2018-12-13T03:09:13.141Z,92.70
2018-12-13T03:11:41.922Z,92.60
2018-12-13T03:14:10.699Z,92.70
2018-12-13T03:16:39.475Z,92.60
2018-12-13T03:19:08.354Z,92.60
2018-12-13T03:21:37.227Z,92.60
2018-12-13T03:24:06.018Z,92.70
2018-12-13T03:26:34.779Z,92.80
2018-12-13T03:29:03.722Z,92.50
2018-12-13T03:31:32.635Z,92.80
2018-12-13T03:34:01.396Z,92.80
2018-12-13T03:36:30.157Z,92.70
2018-12-13T03:38:58.940Z,92.90
2018-12-13T03:41:27.790Z,92.90
2018-12-13T03:43:56.550Z,93.00
2018-12-13T03:46:25.495Z,93.00
2018-12-13T03:48:54.262Z,93.10
2018-12-13T03:51:23.162Z,92.80
2018-12-13T03:53:51.992Z,93.10
2018-12-13T03:56:20.777Z,93.20
2018-12-13T03:58:49.560Z,93.60
2018-12-13T04:01:18.343Z,93.40
2018-12-13T04:03:47.131Z,93.30
2018-12-13T04:06:15.986Z,93.40
2018-12-13T04:08:44.827Z,93.30
2018-12-13T04:11:13.668Z,93.60
2018-12-13T04:13:42.468Z,93.20
2018-12-13T04:16:11.326Z,93.20
2018-12-13T04:18:40.120Z,93.30
2018-12-13T04:21:08.915Z,93.30
2018-12-13T04:23:37.708Z,93.20
2018-12-13T04:26:06.500Z,93.10
2018-12-13T04:28:35.298Z,93.20
2018-12-13T04:31:04.126Z,93.20
2018-12-13T04:33:32.963Z,93.30
2018-12-13T04:36:01.754Z,93.40
2018-12-13T04:38:30.571Z,93.10
2018-12-13T04:40:59.486Z,93.10
2018-12-13T04:43:28.310Z,92.80
2018-12-13T04:45:57.178Z,93.10
2018-12-13T04:48:25.996Z,93.20
2018-12-13T04:50:54.805Z,93.20
2018-12-13T04:53:23.670Z,93.20
2018-12-13T04:55:52.462Z,93.20
2018-12-13T04:58:21.350Z,93.20
2018-12-13T05:00:50.142Z,93.40
2018-12-13T05:03:18.954Z,93.40
2018-12-13T05:05:47.736Z,93.40
2018-12-13T05:08:16.611Z,93.50
2018-12-13T05:10:54.033Z,93.40
2018-12-13T05:13:22.906Z,93.50
2018-12-13T05:15:51.665Z,93.40
2018-12-13T05:18:20.523Z,93.30
2018-12-13T05:20:49.270Z,93.30
2018-12-13T05:23:18.057Z,93.20
2018-12-13T05:25:48.771Z,93.10
2018-12-13T05:28:17.625Z,93.00
2018-12-13T05:30:46.406Z,93.00
2018-12-13T05:33:15.378Z,93.30
2018-12-13T05:35:44.321Z,92.90
2018-12-13T05:38:13.108Z,92.90
2018-12-13T05:40:41.895Z,92.80
2018-12-13T05:43:10.682Z,92.70
2018-12-13T05:45:39.482Z,92.70
2018-12-13T05:48:08.337Z,92.70
2018-12-13T05:50:37.321Z,92.50
2018-12-13T05:53:06.221Z,92.40
2018-12-13T05:55:35.125Z,92.40
2018-12-13T05:58:03.982Z,92.20
2018-12-13T06:00:32.916Z,92.30
2018-12-13T06:03:01.671Z,92.40
2018-12-13T06:05:30.618Z,92.40
2018-12-13T06:07:59.383Z,92.40
2018-12-13T06:10:28.199Z,92.40
2018-12-13T06:12:57.094Z,92.50
2018-12-13T06:15:25.909Z,92.50
2018-12-13T06:17:54.723Z,92.80
2018-12-13T06:20:23.521Z,93.00
2018-12-13T06:22:52.339Z,92.90
2018-12-13T06:25:21.233Z,93.00
2018-12-13T06:27:50.055Z,93.10
2018-12-13T06:30:18.946Z,93.20
2018-12-13T06:32:47.778Z,93.40
2018-12-13T06:35:16.590Z,93.50
2018-12-13T06:37:46.442Z,93.60
2018-12-13T06:40:16.190Z,93.50
2018-12-13T06:42:44.983Z,93.90
2018-12-13T06:45:13.867Z,93.70
2018-12-13T06:47:42.667Z,94.00
2018-12-13T06:50:11.467Z,93.90
2018-12-13T06:52:40.251Z,93.80
2018-12-13T06:55:09.035Z,93.80
2018-12-13T06:57:37.839Z,93.80
2018-12-13T07:00:07.971Z,93.80
2018-12-13T07:02:36.790Z,93.80
2018-12-13T07:05:05.789Z,93.80
2018-12-13T07:07:34.741Z,93.70
2018-12-13T07:10:03.934Z,93.60
2018-12-13T07:12:32.723Z,93.70
2018-12-13T07:15:01.508Z,93.60
2018-12-13T07:17:30.461Z,93.60
2018-12-13T07:19:59.242Z,93.60
2018-12-13T07:22:28.112Z,93.60
2018-12-13T07:24:56.889Z,93.60
2018-12-13T07:27:25.663Z,93.90
2018-12-13T07:29:54.413Z,93.50
2018-12-13T07:32:23.207Z,93.60
2018-12-13T07:34:52.267Z,93.60
2018-12-13T07:37:21.125Z,93.50
2018-12-13T07:39:50.011Z,93.40
2018-12-13T07:42:18.778Z,93.50
2018-12-13T07:44:47.548Z,93.30
2018-12-13T07:47:16.385Z,93.20
2018-12-13T07:49:45.200Z,93.20
2018-12-13T07:52:14.022Z,93.50
2018-12-13T07:54:42.823Z,92.90
2018-12-13T07:57:11.632Z,92.80
2018-12-13T07:59:40.410Z,92.70
2018-12-13T08:02:09.186Z,92.60
2018-12-13T08:04:37.970Z,92.60
2018-12-13T08:07:06.770Z,92.40
2018-12-13T08:09:35.658Z,92.10
2018-12-13T08:12:04.573Z,91.30
2018-12-13T08:14:33.402Z,90.20
2018-12-13T08:17:02.250Z,87.50
2018-12-13T08:19:32.982Z,84.40
2018-12-13T08:22:01.938Z,82.00
2018-12-13T08:24:30.747Z,77.80
2018-12-13T08:27:01.458Z,72.30
2018-12-13T08:29:31.798Z,66.20
2018-12-13T08:32:00.588Z,64.90
2018-12-13T08:34:29.386Z,62.60
2018-12-13T08:36:58.163Z,63.90
2018-12-13T08:39:26.980Z,67.90
2018-12-13T08:41:55.762Z,72.00
2018-12-13T08:44:24.631Z,75.30
2018-12-13T08:46:53.466Z,78.00
2018-12-13T08:49:22.297Z,79.80
2018-12-13T08:51:51.106Z,80.50
2018-12-13T08:54:19.894Z,81.10
2018-12-13T08:56:48.692Z,80.30
2018-12-13T08:59:17.549Z,75.20
2018-12-13T09:01:46.438Z,69.90
2018-12-13T09:04:15.288Z,63.60
2018-12-13T09:06:44.096Z,58.30
2018-12-13T09:09:12.975Z,55.60
2018-12-13T09:11:41.901Z,53.30
2018-12-13T09:14:10.717Z,54.30
2018-12-13T09:16:39.500Z,56.10
2018-12-13T09:19:08.278Z,56.00
2018-12-13T09:21:37.118Z,54.80
2018-12-13T09:24:05.934Z,52.20
2018-12-13T09:26:34.714Z,50.50
2018-12-13T09:29:03.491Z,49.00
2018-12-13T09:31:32.325Z,47.00
2018-12-13T09:34:01.082Z,47.20
2018-12-13T09:36:29.856Z,47.60
2018-12-13T09:38:58.650Z,44.70
2018-12-13T09:41:27.415Z,42.60
2018-12-13T09:43:56.199Z,43.80
2018-12-13T09:46:24.980Z,45.50
2018-12-13T09:48:53.938Z,46.20
2018-12-13T09:51:22.863Z,45.20
2018-12-13T09:53:51.635Z,46.10
2018-12-13T09:56:20.452Z,45.40
2018-12-13T09:58:49.229Z,43.30
2018-12-13T10:01:18.119Z,43.60
2018-12-13T10:03:46.901Z,45.30
2018-12-13T10:06:15.744Z,44.70
2018-12-13T10:08:46.406Z,44.20
2018-12-13T10:11:15.362Z,43.00
2018-12-13T10:13:44.163Z,42.50
2018-12-13T10:16:12.973Z,43.30
2018-12-13T10:18:41.763Z,42.50
2018-12-13T10:21:10.663Z,43.00
2018-12-13T10:23:39.463Z,44.50
2018-12-13T10:26:08.270Z,44.30
2018-12-13T10:28:37.065Z,44.20
2018-12-13T10:31:05.894Z,44.90
2018-12-13T10:33:34.694Z,46.70
2018-12-13T10:36:03.514Z,46.90
2018-12-13T10:38:32.322Z,47.30
2018-12-13T10:41:01.196Z,46.40
2018-12-13T10:43:30.001Z,46.50
2018-12-13T10:45:58.892Z,48.30
2018-12-13T10:48:27.724Z,49.20
2018-12-13T10:50:56.494Z,50.80
2018-12-13T10:53:25.281Z,51.80
2018-12-13T10:55:54.085Z,52.70
2018-12-13T10:58:22.915Z,54.80
2018-12-13T11:00:57.277Z,55.30
2018-12-13T11:03:31.526Z,56.20
2018-12-13T11:06:01.026Z,57.20
2018-12-13T11:08:29.915Z,56.30
2018-12-13T11:10:58.711Z,57.00
2018-12-13T11:13:27.509Z,56.10
2018-12-13T11:15:56.860Z,57.50
2018-12-13T11:18:25.637Z,58.10
2018-12-13T11:20:55.543Z,57.70
2018-12-13T11:23:24.925Z,57.60
2018-12-13T11:25:53.782Z,58.60
2018-12-13T11:28:41.823Z,58.90
2018-12-13T11:31:10.601Z,58.20
2018-12-13T11:33:39.451Z,59.70
2018-12-13T11:36:08.234Z,58.80
2018-12-13T11:38:37.082Z,59.00
2018-12-13T11:41:05.986Z,59.50
2018-12-13T11:43:34.814Z,60.40
2018-12-13T11:46:03.683Z,59.10
2018-12-13T11:48:32.510Z,59.50
2018-12-13T11:51:01.271Z,59.50
2018-12-13T11:53:31.238Z,59.10
2018-12-13T11:56:00.214Z,58.40
2018-12-13T11:58:29.003Z,59.30
2018-12-13T12:00:57.841Z,59.10
2018-12-13T12:03:26.621Z,57.00
2018-12-13T12:05:55.387Z,56.20
2018-12-13T12:08:24.167Z,56.40
2018-12-13T12:10:52.943Z,56.70
2018-12-13T12:13:21.726Z,55.50
2018-12-13T12:15:50.525Z,55.80
2018-12-13T12:18:19.283Z,55.70
2018-12-13T12:20:48.119Z,54.40
2018-12-13T12:23:16.965Z,52.30
2018-12-13T12:25:45.714Z,53.40
2018-12-13T12:28:14.540Z,53.70
2018-12-13T12:30:43.335Z,53.60
2018-12-13T12:33:12.142Z,54.10
2018-12-13T12:35:40.906Z,53.90
2018-12-13T12:38:09.686Z,54.40
2018-12-13T12:40:38.449Z,53.50
2018-12-13T12:43:07.259Z,54.40
2018-12-13T12:45:36.560Z,54.70
2018-12-13T12:48:05.346Z,55.60
2018-12-13T12:50:34.145Z,56.70
2018-12-13T12:53:02.942Z,56.30
2018-12-13T12:55:31.809Z,56.40
2018-12-13T12:58:00.742Z,56.50
2018-12-13T13:00:29.555Z,57.10
2018-12-13T13:02:58.407Z,56.90
2018-12-13T13:05:27.186Z,56.80
2018-12-13T13:07:55.970Z,56.70
2018-12-13T13:10:24.735Z,56.90
2018-12-13T13:12:53.537Z,56.70
2018-12-13T13:15:22.327Z,56.70
2018-12-13T13:17:51.129Z,56.50
2018-12-13T13:20:19.906Z,56.90
2018-12-13T13:22:48.688Z,57.40
2018-12-13T13:25:17.470Z,55.70
2018-12-13T13:27:46.277Z,55.40
2018-12-13T13:30:15.047Z,55.00
2018-12-13T13:32:43.827Z,54.80
2018-12-13T13:35:12.637Z,56.10
2018-12-13T13:37:41.406Z,55.90
2018-12-13T13:40:10.267Z,56.60
2018-12-13T13:42:39.086Z,56.60
2018-12-13T13:45:08.301Z,56.70
2018-12-13T13:47:38.177Z,56.90
2018-12-13T13:50:07.078Z,57.00
2018-12-13T13:52:35.932Z,56.20
2018-12-13T13:55:05.310Z,58.10
2018-12-13T13:57:34.069Z,63.60
2018-12-13T14:00:03.349Z,66.40
2018-12-13T14:02:32.206Z,68.20
2018-12-13T14:05:01.055Z,69.50
2018-12-13T14:07:29.811Z,69.90
2018-12-13T14:09:58.578Z,71.00
2018-12-13T14:12:27.366Z,70.60
2018-12-13T14:14:56.173Z,70.90
2018-12-13T14:17:24.962Z,71.90
2018-12-13T14:19:53.842Z,71.30
2018-12-13T14:22:22.653Z,71.10
2018-12-13T14:24:51.523Z,71.10
2018-12-13T14:27:20.557Z,71.20
2018-12-13T14:29:49.381Z,71.70
2018-12-13T14:32:18.138Z,71.80
2018-12-13T14:34:46.934Z,71.50
2018-12-13T14:37:15.733Z,71.70
2018-12-13T14:39:44.799Z,71.90
2018-12-13T14:42:15.749Z,72.10
2018-12-13T14:44:44.546Z,72.40
2018-12-13T14:47:13.317Z,72.70
2018-12-13T14:49:42.103Z,72.80
2018-12-13T14:52:11.126Z,72.60
2018-12-13T14:54:39.974Z,73.00
2018-12-13T14:57:08.909Z,73.90
2018-12-13T14:59:38.162Z,72.90
2018-12-13T15:02:06.971Z,72.90
2018-12-13T15:04:37.102Z,73.00
2018-12-13T15:07:06.107Z,72.90
2018-12-13T15:09:34.901Z,72.50
2018-12-13T15:12:03.846Z,72.30
2018-12-13T15:14:33.475Z,72.60
2018-12-13T15:17:02.315Z,72.60
2018-12-13T15:19:31.128Z,72.80
2018-12-13T15:22:00.138Z,73.10
2018-12-13T15:24:29.685Z,73.20
2018-12-13T15:26:58.495Z,73.10
2018-12-13T15:29:27.309Z,73.40
2018-12-13T15:31:59.483Z,73.20
2018-12-13T15:34:26.891Z,73.30
2018-12-13T15:36:55.707Z,73.50
2018-12-13T15:39:24.489Z,73.70
2018-12-13T15:41:53.322Z,73.90
2018-12-13T15:44:22.098Z,74.10
2018-12-13T15:46:50.994Z,74.40
2018-12-13T15:49:20.065Z,74.50
2018-12-13T15:51:48.873Z,74.60
2018-12-13T15:54:18.378Z,74.50
2018-12-13T15:56:47.131Z,74.40
2018-12-13T15:59:15.978Z,73.60
2018-12-13T16:01:44.950Z,74.70
2018-12-13T16:04:13.736Z,74.80
2018-12-13T16:06:42.602Z,74.60
2018-12-13T16:09:14.809Z,75.50
2018-12-13T16:11:46.297Z,75.20
2018-12-13T16:14:15.090Z,75.10
2018-12-13T16:16:43.947Z,75.00
2018-12-13T16:19:12.746Z,75.20
2018-12-13T16:21:41.541Z,75.50
2018-12-13T16:24:10.342Z,75.80
2018-12-13T16:26:39.304Z,76.30
2018-12-13T16:29:08.115Z,77.00
2018-12-13T16:31:36.908Z,76.40
2018-12-13T16:34:05.854Z,76.60
2018-12-13T16:36:34.747Z,76.60
2018-12-13T16:39:06.390Z,76.50
2018-12-13T16:41:36.123Z,76.50
2018-12-13T16:44:04.984Z,76.50
2018-12-13T16:46:33.805Z,76.70
2018-12-13T16:49:02.610Z,77.40
2018-12-13T16:51:31.450Z,77.70
2018-12-13T16:54:00.269Z,78.70
2018-12-13T16:56:29.056Z,77.90
2018-12-13T16:58:57.842Z,78.30
2018-12-13T17:01:26.631Z,78.50
2018-12-13T17:03:55.422Z,79.00
2018-12-13T17:06:24.257Z,79.10
2018-12-13T17:08:53.030Z,79.00
2018-12-13T17:11:21.842Z,79.30
2018-12-13T17:13:50.686Z,79.10
2018-12-13T17:16:19.563Z,79.30
2018-12-13T17:18:48.362Z,79.80
2018-12-13T17:21:17.142Z,79.80
2018-12-13T17:23:45.941Z,80.30
2018-12-13T17:26:14.849Z,80.30
2018-12-13T17:28:43.674Z,80.80
2018-12-13T17:31:12.454Z,81.00
2018-12-13T17:33:41.266Z,80.70
2018-12-13T17:36:10.133Z,80.80
2018-12-13T17:38:38.910Z,80.50
2018-12-13T17:41:07.817Z,80.30
2018-12-13T17:43:36.620Z,80.50
2018-12-13T17:46:05.433Z,80.60
2018-12-13T17:48:34.227Z,80.30
2018-12-13T17:51:03.024Z,80.20
2018-12-13T17:53:31.842Z,79.60
2018-12-13T17:56:00.667Z,79.90
2018-12-13T17:58:29.470Z,79.80
2018-12-13T18:00:58.255Z,80.30
2018-12-13T18:03:27.042Z,79.80
2018-12-13T18:05:55.921Z,79.60
2018-12-13T18:08:24.811Z,79.30
2018-12-13T18:10:53.650Z,79.20
2018-12-13T18:13:22.501Z,78.90
2018-12-13T18:15:51.377Z,79.00
2018-12-13T18:18:20.220Z,78.80
2018-12-13T18:20:50.157Z,78.50
2018-12-13T18:23:18.960Z,78.50
2018-12-13T18:25:47.737Z,78.10
2018-12-13T18:28:16.530Z,78.40
2018-12-13T18:30:45.334Z,77.90
2018-12-13T18:33:14.193Z,77.90
2018-12-13T18:35:42.986Z,78.40
2018-12-13T18:38:11.802Z,77.80
2018-12-13T18:40:40.607Z,77.80
2018-12-13T18:43:09.413Z,77.80
2018-12-13T18:45:38.282Z,77.50
2018-12-13T18:48:07.070Z,77.80
2018-12-13T18:50:35.906Z,77.70
2018-12-13T18:53:04.936Z,77.60
2018-12-13T18:55:33.858Z,77.80
2018-12-13T18:58:02.650Z,78.00
2018-12-13T19:00:31.486Z,78.20
2018-12-13T19:03:00.397Z,77.90
2018-12-13T19:05:29.366Z,78.20
2018-12-13T19:07:58.244Z,77.70
2018-12-13T19:10:27.062Z,77.80
2018-12-13T19:12:55.883Z,78.30
2018-12-13T19:15:24.686Z,78.60
2018-12-13T19:17:53.615Z,78.90
2018-12-13T19:20:22.451Z,78.30
2018-12-13T19:22:51.245Z,78.60
2018-12-13T19:25:20.102Z,78.40
2018-12-13T19:27:48.886Z,79.90
2018-12-13T19:30:18.566Z,79.00
2018-12-13T19:32:47.425Z,78.50
2018-12-13T19:35:19.367Z,79.00
2018-12-13T19:37:47.027Z,79.00
2018-12-13T19:40:15.810Z,78.90
2018-12-13T19:44:25.116Z,79.00
2018-12-13T19:46:53.989Z,79.00
2018-12-13T19:49:23.847Z,79.00
2018-12-13T19:51:52.731Z,79.20
2018-12-13T19:54:21.520Z,79.40
2018-12-13T19:56:50.334Z,79.10
2018-12-13T19:59:19.238Z,79.50
2018-12-13T20:01:48.104Z,80.10
2018-12-13T20:04:16.888Z,79.60
2018-12-13T20:06:45.671Z,79.40
2018-12-13T20:09:14.501Z,79.50
2018-12-13T20:11:43.330Z,79.40
2018-12-13T20:14:12.209Z,79.20
2018-12-13T20:16:41.011Z,78.30
2018-12-13T20:19:09.825Z,78.60
2018-12-13T20:21:38.661Z,79.00
2018-12-13T20:24:07.679Z,78.90
2018-12-13T20:26:36.525Z,78.60
2018-12-13T20:29:05.429Z,79.00
2018-12-13T20:31:34.480Z,79.50
2018-12-13T20:34:03.311Z,79.00
2018-12-13T20:36:32.299Z,79.00
2018-12-13T20:39:01.130Z,79.00
2018-12-13T20:41:31.340Z,78.90
2018-12-13T20:44:00.159Z,78.60
2018-12-13T20:46:29.005Z,78.70
2018-12-13T20:48:57.917Z,79.00
2018-12-13T20:51:26.714Z,78.40
2018-12-13T20:53:55.582Z,78.40
2018-12-13T20:56:24.386Z,78.50
2018-12-13T20:58:53.240Z,78.30
2018-12-13T21:01:22.046Z,78.50
2018-12-13T21:03:50.858Z,78.60
2018-12-13T21:06:19.670Z,79.30
2018-12-13T21:08:48.502Z,78.80
2018-12-13T21:11:17.455Z,79.30
2018-12-13T21:13:46.310Z,79.10
2018-12-13T21:16:15.106Z,79.30
2018-12-13T21:18:44.024Z,79.30
2018-12-13T21:21:12.829Z,80.20
2018-12-13T21:23:41.642Z,79.50
2018-12-13T21:26:10.526Z,79.70
2018-12-13T21:28:39.341Z,79.50
2018-12-13T21:31:08.118Z,79.90
2018-12-13T21:33:37.070Z,79.50
2018-12-13T21:36:06.191Z,79.60
2018-12-13T21:38:34.974Z,80.00
2018-12-13T21:41:03.853Z,80.10
2018-12-13T21:43:32.645Z,80.00
2018-12-13T21:46:01.458Z,79.90
2018-12-13T21:48:30.251Z,80.40
2018-12-13T21:50:59.178Z,80.60
2018-12-13T21:53:28.267Z,80.80
2018-12-13T21:55:57.161Z,81.10
2018-12-13T21:58:25.955Z,81.00
2018-12-13T22:00:54.806Z,81.10
2018-12-13T22:03:23.599Z,81.40
2018-12-13T22:05:52.483Z,81.70
2018-12-13T22:08:21.366Z,81.50
2018-12-13T22:10:50.155Z,81.50
2018-12-13T22:13:20.013Z,81.80
2018-12-13T22:15:48.793Z,81.50
2018-12-13T22:18:17.582Z,82.10
2018-12-13T22:20:46.374Z,82.40
2018-12-13T22:23:15.206Z,82.40
2018-12-13T22:25:43.979Z,82.50
2018-12-13T22:28:12.772Z,82.30
2018-12-13T22:30:41.578Z,82.40
2018-12-13T22:33:10.369Z,83.50
2018-12-13T22:35:39.163Z,82.70
2018-12-13T22:38:08.048Z,83.30
2018-12-13T22:40:36.958Z,83.20
2018-12-13T22:43:05.730Z,83.50
2018-12-13T22:45:34.623Z,83.70
2018-12-13T22:48:03.502Z,83.90
2018-12-13T22:50:32.278Z,84.00
2018-12-13T22:53:01.083Z,84.00
2018-12-13T22:55:29.946Z,84.20
2018-12-13T22:57:58.713Z,84.50
2018-12-13T23:00:27.586Z,84.60
2018-12-13T23:02:58.447Z,84.70
2018-12-13T23:05:27.211Z,84.90
2018-12-13T23:07:56.026Z,85.20
2018-12-13T23:10:24.885Z,85.60
2018-12-13T23:12:53.698Z,85.60
2018-12-13T23:15:22.553Z,85.50
2018-12-13T23:17:51.410Z,85.60
2018-12-13T23:20:20.190Z,85.80
2018-12-13T23:22:49.219Z,86.00
2018-12-13T23:25:18.068Z,86.10
2018-12-13T23:27:46.832Z,86.50
2018-12-13T23:30:15.702Z,86.00
2018-12-13T23:32:44.478Z,86.00
2018-12-13T23:35:13.352Z,86.00
2018-12-13T23:37:42.136Z,86.50
2018-12-13T23:40:11.075Z,86.30
2018-12-13T23:42:39.898Z,86.50
2018-12-13T23:45:08.849Z,86.30
2018-12-13T23:47:37.622Z,86.50
2018-12-13T23:50:06.606Z,86.50
2018-12-13T23:52:35.455Z,86.70
2018-12-13T23:55:04.407Z,86.70
2018-12-13T23:57:33.282Z,86.70
